Hyundai Dominion — A8IK7 — position and weather

sailwx.info

Track history (hours):
 
Tides and Currents Weather Stations Pressure Air Temp Water Temp Dewpoint Dewpoint Depression Visibility Wind Speed Wind Dir Waves Ship Positions

Hyundai Dominion

Last reported at 2014-Dec-11 11:03 UTC. Time now 2014-Dec-19 20:16 UTC.
Position S 24°07' W 046°22'.
Warning: this ship's position is 8 days out of date.

Length 304 m; draft 13 m.

Type: Ship (hazmat cat A). MMSI: 636090990.

Date/timePositionNaut miles runAvg speedWind from/ knotsBaromVisibWave heightAir tempDewpointWater temp
2014-Dec-11 11:03S 24°07' W 046°22'713.8
2014-Dec-11 10:33S 24°00' W 046°20'5 4.8
2014-Dec-11 09:33S 23°56' W 046°20'1 0.1
2014-Dec-11 01:29S 23°55' W 046°21'0 0.0
2014-Dec-10 13:29S 23°55' W 046°21'0 0.0
2014-Dec-10 02:28S 23°55' W 046°21'3 3.7
2014-Dec-10 01:33S 23°58' W 046°18'8 7.8
2014-Dec-10 00:30S 24°05' W 046°21'3 0.3
2014-Dec-09 12:17S 24°07' W 046°18'0 0.0
2014-Dec-09 10:11S 24°07' W 046°18'0 0.1
2014-Dec-09 09:06S 24°07' W 046°18'1 1.2
2014-Dec-09 08:32S 24°07' W 046°18'  
2014-Dec-05 05:10S 27°23' W 048°18'711.5
2014-Dec-05 04:33S 27°30' W 048°17'1111.5
2014-Dec-05 03:33S 27°41' W 048°21'1111.3
2014-Dec-05 02:33S 27°52' W 048°24'  
2014-Dec-02 00:27S 34°46' W 057°33'9 9.8
2014-Dec-01 23:33S 34°44' W 057°44'9 9.5
2014-Dec-01 22:33S 34°42' W 057°55'1514.5
2014-Dec-01 21:33S 34°37' W 058°12'9 7.1
2014-Dec-01 20:21S 34°35' W 058°22'0 0.3
2014-Dec-01 19:31S 34°35' W 058°22'0 0.0
2014-Dec-01 18:22S 34°35' W 058°22'0 0.0
2014-Dec-01 17:25S 34°35' W 058°22'0 0.0
2014-Dec-01 16:31S 34°35' W 058°22'0 0.0
2014-Dec-01 15:31S 34°35' W 058°22'  
Track history (hours):
 
Tides and Currents Weather Stations Pressure Air Temp Water Temp Dewpoint Dewpoint Depression Visibility Wind Speed Wind Dir Waves Ship Positions

Hyundai Dominion

Last reported at 2014-Dec-11 11:03 UTC. Time now 2014-Dec-19 20:16 UTC.
Position S 24°07' W 046°22'.
Warning: this ship's position is 8 days out of date.

Length 304 m; draft 13 m.

Type: Ship (hazmat cat A). MMSI: 636090990.

Date/timePositionNaut miles runAvg speedWind from/ knotsBaromVisibWave heightAir tempDewpointWater temp
2014-Dec-11 11:03S 24°07' W 046°22'713.8
2014-Dec-11 10:33S 24°00' W 046°20'5 4.8
2014-Dec-11 09:33S 23°56' W 046°20'1 0.1
2014-Dec-11 01:29S 23°55' W 046°21'0 0.0
2014-Dec-10 13:29S 23°55' W 046°21'0 0.0
2014-Dec-10 02:28S 23°55' W 046°21'3 3.7
2014-Dec-10 01:33S 23°58' W 046°18'8 7.8
2014-Dec-10 00:30S 24°05' W 046°21'3 0.3
2014-Dec-09 12:17S 24°07' W 046°18'0 0.0
2014-Dec-09 10:11S 24°07' W 046°18'0 0.1
2014-Dec-09 09:06S 24°07' W 046°18'1 1.2
2014-Dec-09 08:32S 24°07' W 046°18'  
2014-Dec-05 05:10S 27°23' W 048°18'711.5
2014-Dec-05 04:33S 27°30' W 048°17'1111.5
2014-Dec-05 03:33S 27°41' W 048°21'1111.3
2014-Dec-05 02:33S 27°52' W 048°24'  
2014-Dec-02 00:27S 34°46' W 057°33'9 9.8
2014-Dec-01 23:33S 34°44' W 057°44'9 9.5
2014-Dec-01 22:33S 34°42' W 057°55'1514.5
2014-Dec-01 21:33S 34°37' W 058°12'9 7.1
2014-Dec-01 20:21S 34°35' W 058°22'0 0.3
2014-Dec-01 19:31S 34°35' W 058°22'0 0.0
2014-Dec-01 18:22S 34°35' W 058°22'0 0.0
2014-Dec-01 17:25S 34°35' W 058°22'0 0.0
2014-Dec-01 16:31S 34°35' W 058°22'0 0.0
2014-Dec-01 15:31S 34°35' W 058°22'  

Dump ship's entire track history